createdAt,value
2023-09-28T00:00:55.026Z,12.80
2023-09-28T00:01:55.117Z,14.00
2023-09-28T00:02:55.110Z,11.10
2023-09-28T00:03:55.149Z,13.40
2023-09-28T00:04:55.088Z,11.00
2023-09-28T00:05:54.970Z,13.90
2023-09-28T00:06:54.952Z,13.30
2023-09-28T00:07:54.963Z,12.60
2023-09-28T00:08:54.934Z,13.80
2023-09-28T00:09:54.902Z,13.80
2023-09-28T00:10:54.949Z,14.50
2023-09-28T00:11:54.888Z,11.80
2023-09-28T00:12:54.893Z,14.60
2023-09-28T00:13:55.230Z,12.70
2023-09-28T00:14:54.851Z,13.40
2023-09-28T00:15:54.860Z,13.00
2023-09-28T00:16:54.977Z,11.50
2023-09-28T00:17:54.842Z,14.00
2023-09-28T00:18:54.798Z,15.60
2023-09-28T00:19:54.828Z,13.50
2023-09-28T00:20:54.814Z,14.20
2023-09-28T00:21:54.799Z,12.10
2023-09-28T00:22:54.879Z,12.20
2023-09-28T00:23:55.065Z,11.40
2023-09-28T00:24:54.742Z,13.70
2023-09-28T00:25:54.841Z,10.50
2023-09-28T00:26:54.714Z,11.30
2023-09-28T00:27:54.732Z,12.00
2023-09-28T00:28:54.739Z,12.60
2023-09-28T00:29:54.688Z,12.10
2023-09-28T00:30:54.784Z,12.70
2023-09-28T00:31:54.729Z,11.90
2023-09-28T00:32:54.700Z,12.00
2023-09-28T00:33:54.845Z,12.30
2023-09-28T00:34:54.665Z,12.60
2023-09-28T00:35:54.630Z,10.80
2023-09-28T00:36:54.630Z,11.40
2023-09-28T00:37:54.619Z,10.60
2023-09-28T00:38:54.605Z,11.30
2023-09-28T00:39:54.589Z,12.30
2023-09-28T00:40:54.663Z,13.40
2023-09-28T00:41:54.571Z,9.90
2023-09-28T00:42:54.557Z,11.60
2023-09-28T00:43:54.746Z,11.00
2023-09-28T00:44:54.567Z,10.10
2023-09-28T00:45:54.533Z,11.50
2023-09-28T00:46:54.543Z,13.10
2023-09-28T00:47:54.510Z,10.40
2023-09-28T00:48:54.477Z,14.60
2023-09-28T00:49:54.499Z,11.50
2023-09-28T00:50:54.468Z,12.20
2023-09-28T00:51:54.445Z,10.10
2023-09-28T00:52:54.500Z,11.10
2023-09-28T00:53:54.576Z,12.00
2023-09-28T00:54:54.417Z,10.40
2023-09-28T00:55:54.443Z,15.10
2023-09-28T00:56:54.463Z,13.00
2023-09-28T00:57:54.375Z,12.90
2023-09-28T00:58:54.384Z,14.50
2023-09-28T00:59:54.352Z,12.00
2023-09-28T01:00:54.393Z,11.90
2023-09-28T01:01:54.382Z,9.10
2023-09-28T01:02:54.399Z,11.00
2023-09-28T01:03:54.558Z,10.60
2023-09-28T01:04:54.335Z,13.10
2023-09-28T01:05:54.302Z,11.70
2023-09-28T01:06:54.278Z,10.70
2023-09-28T01:07:54.298Z,11.70
2023-09-28T01:08:54.261Z,12.60
2023-09-28T01:09:54.238Z,11.10
2023-09-28T01:11:02.003Z,11.40
2023-09-28T01:11:54.216Z,10.60
2023-09-28T01:12:54.196Z,13.00
2023-09-28T01:13:54.486Z,12.20
2023-09-28T01:14:54.206Z,11.20
2023-09-28T01:15:54.215Z,12.10
2023-09-28T01:16:54.223Z,10.90
2023-09-28T01:17:56.066Z,12.70
2023-09-28T01:18:54.170Z,9.30
2023-09-28T01:19:54.214Z,9.70
2023-09-28T01:20:54.134Z,11.90
2023-09-28T01:21:54.136Z,12.30
2023-09-28T01:22:54.140Z,11.50
2023-09-28T01:23:54.264Z,10.10
2023-09-28T01:24:54.088Z,13.70
2023-09-28T01:25:54.100Z,11.20
2023-09-28T01:26:54.150Z,12.90
2023-09-28T01:27:54.039Z,10.60
2023-09-28T01:28:54.055Z,12.30
2023-09-28T01:29:54.043Z,12.70
2023-09-28T01:30:54.050Z,12.40
2023-09-28T01:31:54.027Z,11.70
2023-09-28T01:32:54.073Z,13.30
2023-09-28T01:33:54.276Z,11.50
2023-09-28T01:34:54.034Z,11.10
2023-09-28T01:35:53.955Z,11.40
2023-09-28T01:36:53.958Z,11.60
2023-09-28T01:37:53.984Z,11.50
2023-09-28T01:38:53.978Z,14.60
2023-09-28T01:39:53.933Z,11.00
2023-09-28T01:40:53.976Z,10.80
2023-09-28T01:41:53.907Z,11.30
2023-09-28T01:42:53.893Z,12.70
2023-09-28T01:43:54.064Z,13.10
2023-09-28T01:44:53.892Z,9.70
2023-09-28T01:45:53.927Z,12.00
2023-09-28T01:46:53.862Z,11.10
2023-09-28T01:47:53.840Z,12.70
2023-09-28T01:48:53.844Z,12.30
2023-09-28T01:49:53.830Z,11.30
2023-09-28T01:50:53.830Z,11.80
2023-09-28T01:51:53.792Z,11.10
2023-09-28T01:52:53.796Z,13.70
2023-09-28T01:53:53.972Z,12.20
2023-09-28T01:54:53.761Z,10.00
2023-09-28T01:55:53.795Z,10.10
2023-09-28T01:56:53.742Z,11.00
2023-09-28T01:57:53.735Z,14.00
2023-09-28T01:58:53.754Z,11.90
2023-09-28T01:59:53.722Z,12.70
2023-09-28T02:00:53.697Z,11.20
2023-09-28T02:01:53.796Z,11.70
2023-09-28T02:02:53.675Z,9.80
2023-09-28T02:03:53.849Z,10.10
2023-09-28T02:04:53.680Z,10.90
2023-09-28T02:05:53.753Z,12.70
2023-09-28T02:06:53.688Z,12.20
2023-09-28T02:07:53.719Z,10.20
2023-09-28T02:08:53.606Z,11.50
2023-09-28T02:09:53.608Z,11.30
2023-09-28T02:10:53.615Z,12.00
2023-09-28T02:11:53.576Z,11.30
2023-09-28T02:12:53.631Z,13.00
2023-09-28T02:13:53.761Z,12.60
2023-09-28T02:14:53.571Z,11.50
2023-09-28T02:15:53.626Z,13.40
2023-09-28T02:16:53.530Z,11.30
2023-09-28T02:17:53.609Z,11.30
2023-09-28T02:18:53.523Z,11.80
2023-09-28T02:19:53.558Z,9.10
2023-09-28T02:20:53.487Z,11.60
2023-09-28T02:21:53.443Z,9.20
2023-09-28T02:22:53.661Z,10.20
2023-09-28T02:23:53.784Z,10.10
2023-09-28T02:24:53.425Z,10.80
2023-09-28T02:25:53.479Z,11.20
2023-09-28T02:26:53.424Z,12.60
2023-09-28T02:27:53.400Z,11.50
2023-09-28T02:28:53.428Z,11.10
2023-09-28T02:29:53.388Z,9.00
2023-09-28T02:30:53.358Z,9.80
2023-09-28T02:31:53.473Z,10.40
2023-09-28T02:32:53.755Z,12.80
2023-09-28T02:33:53.612Z,10.20
2023-09-28T02:34:53.366Z,12.40
2023-09-28T02:35:53.342Z,11.10
2023-09-28T02:36:53.397Z,12.60
2023-09-28T02:37:53.450Z,10.60
2023-09-28T02:38:53.295Z,10.70
2023-09-28T02:39:53.263Z,10.30
2023-09-28T02:40:53.282Z,10.70
2023-09-28T02:41:53.238Z,10.60
2023-09-28T02:42:53.377Z,10.70
2023-09-28T02:43:53.505Z,9.90
2023-09-28T02:44:53.201Z,11.80
2023-09-28T02:45:53.278Z,10.60
2023-09-28T02:46:53.203Z,12.70
2023-09-28T02:47:53.210Z,12.30
2023-09-28T02:48:53.218Z,11.00
2023-09-28T02:49:53.164Z,11.60
2023-09-28T02:50:53.183Z,11.90
2023-09-28T02:51:53.127Z,11.70
2023-09-28T02:52:53.199Z,10.70
2023-09-28T02:53:53.553Z,11.70
2023-09-28T02:54:53.120Z,12.90
2023-09-28T02:55:53.125Z,11.20
2023-09-28T02:56:53.061Z,11.00
2023-09-28T02:57:53.079Z,13.40
2023-09-28T02:58:53.108Z,12.00
2023-09-28T02:59:53.052Z,11.60
2023-09-28T03:00:53.059Z,10.30
2023-09-28T03:01:53.117Z,12.00
2023-09-28T03:02:53.263Z,9.60
2023-09-28T03:03:53.239Z,11.40
2023-09-28T03:04:53.033Z,11.80
2023-09-28T03:05:52.985Z,12.30
2023-09-28T03:06:53.003Z,10.00
2023-09-28T03:07:52.972Z,11.30
2023-09-28T03:08:52.946Z,10.70
2023-09-28T03:09:52.963Z,13.60
2023-09-28T03:10:52.943Z,12.70
2023-09-28T03:11:52.916Z,11.00
2023-09-28T03:12:52.927Z,11.80
2023-09-28T03:13:53.166Z,9.60
2023-09-28T03:14:52.864Z,12.10
2023-09-28T03:15:52.883Z,11.00
2023-09-28T03:16:52.945Z,13.00
2023-09-28T03:17:52.922Z,10.10
2023-09-28T03:18:52.874Z,11.00
2023-09-28T03:19:52.889Z,10.70
2023-09-28T03:20:52.792Z,11.50
2023-09-28T03:21:52.792Z,12.10
2023-09-28T03:22:52.831Z,10.30
2023-09-28T03:23:52.997Z,13.60
2023-09-28T03:24:52.784Z,12.40
2023-09-28T03:25:52.793Z,9.70
2023-09-28T03:27:07.963Z,10.30
2023-09-28T03:27:52.749Z,10.30
2023-09-28T03:28:52.736Z,10.00
2023-09-28T03:29:52.694Z,9.80
2023-09-28T03:30:52.678Z,10.50
2023-09-28T03:31:52.748Z,9.90
2023-09-28T03:32:52.752Z,11.60
2023-09-28T03:33:52.796Z,9.80
2023-09-28T03:34:52.670Z,9.60
2023-09-28T03:35:52.608Z,9.60
2023-09-28T03:36:52.606Z,9.30
2023-09-28T03:37:52.693Z,10.40
2023-09-28T03:38:52.608Z,9.30
2023-09-28T03:39:52.621Z,9.30
2023-09-28T03:40:52.586Z,10.10
2023-09-28T03:41:52.585Z,10.00
2023-09-28T03:42:53.009Z,9.80
2023-09-28T03:43:52.725Z,8.80
2023-09-28T03:44:52.629Z,10.00
2023-09-28T03:45:52.568Z,9.00
2023-09-28T03:46:52.498Z,9.80
2023-09-28T03:47:52.672Z,11.00
2023-09-28T03:48:52.485Z,8.70
2023-09-28T03:49:52.492Z,9.40
2023-09-28T03:50:52.472Z,10.00
2023-09-28T03:51:52.421Z,10.10
2023-09-28T03:52:52.607Z,11.70
2023-09-28T03:53:52.635Z,8.60
2023-09-28T03:54:52.401Z,9.70
2023-09-28T03:55:52.435Z,8.30
2023-09-28T03:56:52.421Z,10.50
2023-09-28T03:57:52.445Z,9.50
2023-09-28T03:58:52.384Z,8.50
2023-09-28T03:59:52.363Z,9.20
2023-09-28T04:00:52.373Z,10.90
2023-09-28T04:01:52.379Z,10.80
2023-09-28T04:02:54.785Z,8.90
2023-09-28T04:03:52.470Z,9.30
2023-09-28T04:04:52.377Z,12.10
2023-09-28T04:05:52.287Z,10.50
2023-09-28T04:06:52.312Z,8.40
2023-09-28T04:07:52.406Z,9.10
2023-09-28T04:08:52.262Z,10.30
2023-09-28T04:09:52.254Z,8.60
2023-09-28T04:10:52.230Z,8.40
2023-09-28T04:11:52.236Z,7.70
2023-09-28T04:12:52.213Z,8.70
2023-09-28T04:13:52.533Z,7.20
2023-09-28T04:14:52.228Z,9.30
2023-09-28T04:15:52.161Z,11.30
2023-09-28T04:16:52.140Z,8.20
2023-09-28T04:17:52.253Z,7.70
2023-09-28T04:18:52.219Z,8.40
2023-09-28T04:19:52.167Z,7.90
2023-09-28T04:20:52.101Z,10.10
2023-09-28T04:21:52.090Z,8.40
2023-09-28T04:22:52.146Z,9.60
2023-09-28T04:23:52.151Z,8.00
2023-09-28T04:24:52.094Z,9.10
2023-09-28T04:25:52.075Z,8.40
2023-09-28T04:26:52.058Z,10.10
2023-09-28T04:27:52.040Z,8.90
2023-09-28T04:28:52.088Z,7.80
2023-09-28T04:29:52.002Z,7.90
2023-09-28T04:30:52.000Z,9.40
2023-09-28T04:31:52.067Z,9.70
2023-09-28T04:32:52.000Z,10.20
2023-09-28T04:33:52.245Z,8.10
2023-09-28T04:34:51.980Z,8.60
2023-09-28T04:35:52.001Z,12.90
2023-09-28T04:36:51.942Z,9.10
2023-09-28T04:37:51.927Z,8.10
2023-09-28T04:38:51.898Z,8.80
2023-09-28T04:39:51.986Z,9.30
2023-09-28T04:40:51.982Z,10.20
2023-09-28T04:41:51.889Z,11.80
2023-09-28T04:42:51.858Z,9.50
2023-09-28T04:43:52.042Z,9.20
2023-09-28T04:44:51.855Z,8.70
2023-09-28T04:45:51.836Z,11.30
2023-09-28T04:46:51.873Z,9.40
2023-09-28T04:47:51.843Z,8.70
2023-09-28T04:48:52.806Z,9.00
2023-09-28T04:49:51.787Z,8.90
2023-09-28T04:50:51.771Z,8.50
2023-09-28T04:51:51.741Z,8.90
2023-09-28T04:52:51.771Z,8.00
2023-09-28T04:53:51.796Z,8.20
2023-09-28T04:54:51.762Z,9.70
2023-09-28T04:55:51.787Z,9.30
2023-09-28T04:56:51.720Z,8.40
2023-09-28T04:57:51.694Z,7.80
2023-09-28T04:58:51.738Z,8.30
2023-09-28T04:59:51.707Z,10.10
2023-09-28T05:00:51.651Z,8.90
2023-09-28T05:01:51.704Z,8.50
2023-09-28T05:02:51.654Z,8.50
2023-09-28T05:03:51.773Z,10.00
2023-09-28T05:04:51.677Z,8.50
2023-09-28T05:05:51.590Z,7.90
2023-09-28T05:06:51.580Z,10.10
2023-09-28T05:07:51.666Z,10.40
2023-09-28T05:08:51.607Z,9.50
2023-09-28T05:09:51.540Z,7.60
2023-09-28T05:10:51.552Z,9.10
2023-09-28T05:11:51.528Z,8.70
2023-09-28T05:12:51.560Z,8.30
2023-09-28T05:13:51.533Z,7.30
2023-09-28T05:14:52.608Z,7.80
2023-09-28T05:15:51.525Z,7.20
2023-09-28T05:16:51.507Z,8.50
2023-09-28T05:17:51.714Z,9.00
2023-09-28T05:18:51.459Z,8.60
2023-09-28T05:19:51.475Z,8.60
2023-09-28T05:20:51.432Z,8.90
2023-09-28T05:21:51.441Z,8.60
2023-09-28T05:22:51.495Z,8.00
2023-09-28T05:23:51.513Z,9.20
2023-09-28T05:24:51.396Z,9.40
2023-09-28T05:25:51.439Z,8.80
2023-09-28T05:26:51.527Z,8.30
2023-09-28T05:27:51.367Z,8.50
2023-09-28T05:28:51.386Z,8.00
2023-09-28T05:29:51.457Z,8.70
2023-09-28T05:30:51.505Z,8.60
2023-09-28T05:31:51.449Z,8.60
2023-09-28T05:32:51.414Z,8.90
2023-09-28T05:33:51.397Z,9.80
2023-09-28T05:34:51.461Z,9.60
2023-09-28T05:35:51.259Z,8.90
2023-09-28T05:36:51.251Z,7.90
2023-09-28T05:37:51.248Z,6.70
2023-09-28T05:38:51.229Z,8.10
2023-09-28T05:39:51.251Z,10.00
2023-09-28T05:40:51.220Z,8.00
2023-09-28T05:41:51.217Z,7.60
2023-09-28T05:42:51.192Z,8.40
2023-09-28T05:43:51.250Z,7.70
2023-09-28T05:44:51.176Z,7.30
2023-09-28T05:45:51.257Z,8.50
2023-09-28T05:46:51.167Z,9.10
2023-09-28T05:47:51.184Z,9.40
2023-09-28T05:48:51.107Z,8.40
2023-09-28T05:49:51.189Z,8.90
2023-09-28T05:50:51.129Z,10.50
2023-09-28T05:51:51.133Z,8.00
2023-09-28T05:52:51.138Z,8.30
2023-09-28T05:53:51.049Z,8.00
2023-09-28T05:54:51.086Z,8.40
2023-09-28T05:55:51.072Z,8.80
2023-09-28T05:56:51.040Z,9.00
2023-09-28T05:57:51.039Z,8.00
2023-09-28T05:58:51.033Z,7.90
2023-09-28T05:59:50.979Z,8.00
2023-09-28T06:00:50.965Z,8.70
2023-09-28T06:01:50.958Z,9.00
2023-09-28T06:02:50.987Z,8.50
2023-09-28T06:03:51.021Z,9.70
2023-09-28T06:04:50.930Z,8.30
2023-09-28T06:05:50.901Z,8.00
2023-09-28T06:06:50.906Z,9.80
2023-09-28T06:07:50.929Z,7.90
2023-09-28T06:08:50.912Z,9.20
2023-09-28T06:09:50.862Z,10.10
2023-09-28T06:10:59.157Z,9.70
2023-09-28T06:11:50.941Z,8.60
2023-09-28T06:12:50.847Z,9.50
2023-09-28T06:14:50.812Z,8.70
2023-09-28T06:15:50.868Z,8.90
2023-09-28T06:16:50.802Z,8.00
2023-09-28T06:17:50.787Z,8.70
2023-09-28T06:18:50.780Z,10.90
2023-09-28T06:19:57.755Z,7.90
2023-09-28T06:20:50.794Z,10.70
2023-09-28T06:21:50.740Z,9.00
2023-09-28T06:22:50.779Z,10.60
2023-09-28T06:23:50.720Z,7.60
2023-09-28T06:24:50.742Z,8.80
2023-09-28T06:25:50.764Z,9.30
2023-09-28T06:26:50.685Z,8.30
2023-09-28T06:27:50.701Z,9.20
2023-09-28T06:28:50.668Z,8.30
2023-09-28T06:29:50.646Z,10.20
2023-09-28T06:30:50.644Z,8.50
2023-09-28T06:31:50.681Z,8.80
2023-09-28T06:32:50.624Z,7.90
2023-09-28T06:33:50.600Z,9.20
2023-09-28T06:34:50.652Z,7.70
2023-09-28T06:35:50.563Z,8.30
2023-09-28T06:36:53.895Z,8.60
2023-09-28T06:37:50.594Z,9.00
2023-09-28T06:38:50.546Z,9.10
2023-09-28T06:39:50.564Z,9.50
2023-09-28T06:40:50.546Z,8.40
2023-09-28T06:41:50.496Z,8.60
2023-09-28T06:42:50.518Z,9.60
2023-09-28T06:43:50.485Z,9.70
2023-09-28T06:44:50.461Z,8.10
2023-09-28T06:45:50.508Z,10.30
2023-09-28T06:46:50.491Z,7.70
2023-09-28T06:47:55.627Z,9.40
2023-09-28T06:48:50.465Z,8.90
2023-09-28T06:49:50.420Z,7.60
2023-09-28T06:50:50.415Z,9.00
2023-09-28T06:51:50.403Z,8.00
2023-09-28T06:52:50.422Z,8.30
2023-09-28T06:53:50.375Z,7.60
2023-09-28T06:54:50.377Z,8.30
2023-09-28T06:56:00.126Z,7.10
2023-09-28T06:56:50.390Z,8.00
2023-09-28T06:57:50.335Z,8.50
2023-09-28T06:58:50.325Z,8.60
2023-09-28T06:59:50.333Z,8.20
2023-09-28T07:00:50.319Z,8.40
2023-09-28T07:01:50.345Z,10.50
2023-09-28T07:02:50.310Z,6.80
2023-09-28T07:03:50.317Z,8.30
2023-09-28T07:04:50.337Z,7.80
2023-09-28T07:05:50.268Z,7.70
2023-09-28T07:06:50.216Z,8.90
2023-09-28T07:07:50.238Z,8.80
2023-09-28T07:08:50.214Z,10.60
2023-09-28T07:09:56.769Z,7.50
2023-09-28T07:12:00.754Z,10.10
2023-09-28T07:13:01.741Z,10.30
2023-09-28T07:14:01.828Z,7.70
2023-09-28T07:15:01.723Z,8.50
2023-09-28T07:16:01.719Z,8.20
2023-09-28T07:17:01.758Z,8.00
2023-09-28T07:18:01.740Z,8.40
2023-09-28T07:19:01.681Z,8.00
2023-09-28T07:20:01.695Z,7.80
2023-09-28T07:21:01.688Z,7.90
2023-09-28T07:22:01.646Z,8.20
2023-09-28T07:23:01.696Z,8.10
2023-09-28T07:24:12.837Z,7.20
2023-09-28T07:25:01.621Z,7.90
2023-09-28T07:26:01.617Z,9.80
2023-09-28T07:27:01.628Z,7.40
2023-09-28T07:28:01.580Z,7.00
2023-09-28T07:29:01.586Z,7.30
2023-09-28T07:30:01.594Z,10.50
2023-09-28T07:31:01.588Z,9.10
2023-09-28T07:32:01.684Z,8.40
2023-09-28T07:33:01.751Z,7.90
2023-09-28T07:34:01.581Z,9.30
2023-09-28T07:35:01.612Z,9.10
2023-09-28T07:36:01.621Z,8.10
2023-09-28T07:37:01.492Z,8.20
2023-09-28T07:38:01.510Z,8.20
2023-09-28T07:39:01.465Z,7.40
2023-09-28T07:40:01.488Z,9.20
2023-09-28T07:41:01.485Z,7.30
2023-09-28T07:42:01.492Z,8.40
2023-09-28T07:43:01.443Z,8.10
2023-09-28T07:44:01.425Z,8.60
2023-09-28T07:45:01.423Z,7.50
2023-09-28T07:46:01.451Z,7.10
2023-09-28T07:47:01.398Z,7.70
2023-09-28T07:48:01.435Z,7.00
2023-09-28T07:49:01.363Z,9.90
2023-09-28T07:50:01.408Z,7.50
2023-09-28T07:51:01.326Z,10.90
2023-09-28T07:52:01.350Z,8.40
2023-09-28T07:53:01.402Z,7.10
2023-09-28T07:54:01.415Z,7.00
2023-09-28T07:55:01.298Z,7.30
2023-09-28T07:56:01.313Z,7.80
2023-09-28T07:57:01.283Z,8.00
2023-09-28T07:58:15.334Z,8.50
2023-09-28T07:59:01.277Z,6.50
2023-09-28T08:00:01.255Z,7.50
2023-09-28T08:01:01.233Z,10.80
2023-09-28T08:02:01.243Z,7.60
2023-09-28T08:03:01.248Z,7.90
2023-09-28T08:04:01.253Z,7.50
2023-09-28T08:05:01.213Z,8.90
2023-09-28T08:06:01.180Z,8.40
2023-09-28T08:07:01.145Z,8.60
2023-09-28T08:09:03.309Z,7.60
2023-09-28T08:10:01.133Z,7.30
2023-09-28T08:11:01.157Z,8.90
2023-09-28T08:12:03.495Z,9.00
2023-09-28T08:13:01.086Z,6.70
2023-09-28T08:14:01.180Z,6.80
2023-09-28T08:15:01.108Z,7.90
2023-09-28T08:16:01.075Z,8.90
2023-09-28T08:17:01.061Z,7.40
2023-09-28T08:18:01.081Z,8.00
2023-09-28T08:19:01.025Z,8.10
2023-09-28T08:20:01.075Z,9.20
2023-09-28T08:21:10.097Z,8.60
2023-09-28T08:22:00.986Z,11.00
2023-09-28T08:23:00.989Z,9.00
2023-09-28T08:24:00.979Z,7.00
2023-09-28T08:25:00.958Z,6.70
2023-09-28T08:26:01.008Z,7.60
2023-09-28T08:27:00.931Z,8.00
2023-09-28T08:28:00.929Z,10.00
2023-09-28T08:29:00.932Z,7.70
2023-09-28T08:30:00.911Z,7.00
2023-09-28T08:31:00.908Z,7.00
2023-09-28T08:32:00.922Z,7.40
2023-09-28T08:33:02.759Z,9.10
2023-09-28T08:34:00.877Z,8.50
2023-09-28T08:35:00.973Z,8.40
2023-09-28T08:36:00.837Z,6.80
2023-09-28T08:37:00.876Z,7.30
2023-09-28T08:38:00.988Z,7.20
2023-09-28T08:39:00.814Z,6.80
2023-09-28T08:40:00.798Z,8.30
2023-09-28T08:41:00.798Z,7.90
2023-09-28T08:42:00.780Z,8.50
2023-09-28T08:43:00.792Z,7.30
2023-09-28T08:44:00.788Z,6.20
2023-09-28T08:45:00.757Z,7.90
2023-09-28T08:46:00.763Z,8.00
2023-09-28T08:47:00.763Z,7.10
2023-09-28T08:48:01.284Z,6.80
2023-09-28T08:49:00.760Z,7.70
2023-09-28T08:50:00.732Z,9.10
2023-09-28T08:51:00.757Z,8.90
2023-09-28T08:52:00.700Z,8.60
2023-09-28T08:53:00.693Z,8.40
2023-09-28T08:54:00.668Z,7.80
2023-09-28T08:55:00.643Z,7.90
2023-09-28T08:56:01.315Z,7.50
2023-09-28T08:57:00.679Z,7.80
2023-09-28T08:58:00.598Z,7.80
2023-09-28T08:59:00.634Z,10.00
2023-09-28T09:00:00.624Z,9.00
2023-09-28T09:01:00.575Z,7.70
2023-09-28T09:02:00.726Z,10.30
2023-09-28T09:03:00.625Z,8.30
2023-09-28T09:04:00.582Z,7.20
2023-09-28T09:05:00.667Z,8.90
2023-09-28T09:06:00.515Z,8.30
2023-09-28T09:07:00.523Z,8.60
2023-09-28T09:08:00.531Z,8.40
2023-09-28T09:09:00.481Z,11.80
2023-09-28T09:10:00.483Z,9.40
2023-09-28T09:11:00.509Z,10.30
2023-09-28T09:12:00.452Z,7.60
2023-09-28T09:13:00.418Z,10.20
2023-09-28T09:14:00.473Z,7.80
2023-09-28T09:15:00.421Z,9.80
2023-09-28T09:16:00.464Z,11.40
2023-09-28T09:17:00.442Z,8.50
2023-09-28T09:18:00.452Z,7.50
2023-09-28T09:19:00.397Z,9.20
2023-09-28T09:20:00.393Z,7.20
2023-09-28T09:21:00.340Z,8.90
2023-09-28T09:22:00.356Z,7.50
2023-09-28T09:23:01.752Z,8.50
2023-09-28T09:24:00.310Z,10.60
2023-09-28T09:25:00.714Z,8.90
2023-09-28T09:26:00.328Z,9.40
2023-09-28T09:27:00.317Z,8.80
2023-09-28T09:28:00.290Z,9.50
2023-09-28T09:29:00.526Z,9.90
2023-09-28T09:30:00.250Z,8.20
2023-09-28T09:31:00.278Z,10.30
2023-09-28T09:32:00.282Z,12.30
2023-09-28T09:33:00.954Z,8.60
2023-09-28T09:34:00.202Z,11.10
2023-09-28T09:35:00.316Z,10.60
2023-09-28T09:36:00.209Z,8.30
2023-09-28T09:37:00.171Z,9.20
2023-09-28T09:38:00.207Z,8.10
2023-09-28T09:39:00.145Z,8.40
2023-09-28T09:40:00.163Z,6.70
2023-09-28T09:41:00.190Z,7.90
2023-09-28T09:42:00.164Z,9.20
2023-09-28T09:43:00.107Z,7.40
2023-09-28T09:44:00.168Z,7.90
2023-09-28T09:45:00.096Z,7.40
2023-09-28T09:46:00.075Z,7.50
2023-09-28T09:47:00.133Z,7.80
2023-09-28T09:48:00.143Z,7.60
2023-09-28T09:49:00.052Z,8.20
2023-09-28T09:50:00.108Z,9.40
2023-09-28T09:51:00.020Z,7.10
2023-09-28T09:52:00.040Z,9.80
2023-09-28T09:53:00.016Z,7.20
2023-09-28T09:54:00.004Z,8.30
2023-09-28T09:54:59.973Z,8.60
2023-09-28T09:56:00.437Z,7.60
2023-09-28T09:56:59.952Z,6.90
2023-09-28T09:57:59.950Z,8.80
2023-09-28T09:58:59.973Z,7.00
2023-09-28T10:00:00.595Z,8.10
2023-09-28T10:00:59.919Z,8.40
2023-09-28T10:01:59.930Z,8.70
2023-09-28T10:02:59.937Z,7.60
2023-09-28T10:04:01.625Z,6.10
2023-09-28T10:04:59.904Z,10.10
2023-09-28T10:05:59.858Z,5.60
2023-09-28T10:06:59.842Z,6.00
2023-09-28T10:07:59.881Z,7.40
2023-09-28T10:08:59.864Z,6.20
2023-09-28T10:09:59.816Z,6.20
2023-09-28T10:10:59.812Z,6.10
2023-09-28T10:11:59.797Z,8.60
2023-09-28T10:13:00.573Z,5.30
2023-09-28T10:13:59.838Z,9.30
2023-09-28T10:14:59.786Z,6.20
2023-09-28T10:15:59.751Z,5.50
2023-09-28T10:16:59.780Z,5.30
2023-09-28T10:17:59.860Z,13.50
2023-09-28T10:18:59.927Z,5.50
2023-09-28T10:19:59.729Z,7.20
2023-09-28T10:20:59.734Z,5.60
2023-09-28T10:21:59.742Z,5.80
2023-09-28T10:22:59.689Z,6.90
2023-09-28T10:23:59.665Z,6.70
2023-09-28T10:24:59.656Z,7.80
2023-09-28T10:25:59.718Z,7.60
2023-09-28T10:26:59.685Z,6.80
2023-09-28T10:27:59.636Z,5.60
2023-09-28T10:28:59.633Z,7.00
2023-09-28T10:29:59.593Z,5.50
2023-09-28T10:30:59.636Z,5.00
2023-09-28T10:31:59.696Z,4.80
2023-09-28T10:32:59.617Z,5.50
2023-09-28T10:33:59.552Z,6.10
2023-09-28T10:34:59.562Z,4.80
2023-09-28T10:35:59.526Z,6.40
2023-09-28T10:36:59.545Z,7.00
2023-09-28T10:37:59.549Z,6.80
2023-09-28T10:38:59.499Z,10.40
2023-09-28T10:39:59.501Z,6.90
2023-09-28T10:40:59.529Z,6.90
2023-09-28T10:41:59.487Z,7.40
2023-09-28T10:42:59.458Z,6.10
2023-09-28T10:43:59.494Z,5.30
2023-09-28T10:44:59.468Z,7.10
2023-09-28T10:45:59.558Z,5.90
2023-09-28T10:46:59.541Z,7.70
2023-09-28T10:47:59.577Z,6.30
2023-09-28T10:48:59.864Z,4.40
2023-09-28T10:49:59.419Z,5.70
2023-09-28T10:50:59.388Z,6.50
2023-09-28T10:51:59.376Z,6.20
2023-09-28T10:52:59.377Z,6.20
2023-09-28T10:53:59.341Z,4.90
2023-09-28T10:54:59.325Z,6.50
2023-09-28T10:55:59.337Z,6.10
2023-09-28T10:56:59.315Z,6.80
2023-09-28T10:57:59.312Z,6.20
2023-09-28T10:58:59.309Z,5.50
2023-09-28T10:59:59.277Z,7.30
2023-09-28T11:00:59.263Z,7.90
2023-09-28T11:01:59.303Z,7.80
2023-09-28T11:02:59.406Z,9.20
2023-09-28T11:03:59.554Z,6.00
2023-09-28T11:04:59.394Z,9.30
2023-09-28T11:05:59.344Z,5.70
2023-09-28T11:06:59.369Z,7.60
2023-09-28T11:07:59.271Z,6.30
2023-09-28T11:08:59.199Z,6.20
2023-09-28T11:09:59.170Z,8.20
2023-09-28T11:10:59.172Z,8.90
2023-09-28T11:11:59.145Z,7.20
2023-09-28T11:12:59.133Z,5.20
2023-09-28T11:13:59.162Z,5.00
2023-09-28T11:14:59.127Z,6.70
2023-09-28T11:15:59.272Z,6.40
2023-09-28T11:16:59.107Z,6.50
2023-09-28T11:17:59.152Z,5.70
2023-09-28T11:18:59.076Z,5.70
2023-09-28T11:19:59.144Z,5.30
2023-09-28T11:20:59.049Z,6.00
2023-09-28T11:21:59.041Z,8.00
2023-09-28T11:22:59.090Z,7.50
2023-09-28T11:23:59.015Z,6.30
2023-09-28T11:24:59.054Z,7.10
2023-09-28T11:25:59.017Z,5.10
2023-09-28T11:26:58.996Z,7.10
2023-09-28T11:27:58.967Z,7.80
2023-09-28T11:28:58.982Z,8.70
2023-09-28T11:29:58.944Z,6.70
2023-09-28T11:30:59.065Z,7.50
2023-09-28T11:31:58.975Z,7.20
2023-09-28T11:32:58.967Z,6.50
2023-09-28T11:33:58.932Z,7.90
2023-09-28T11:34:58.946Z,6.40
2023-09-28T11:35:58.898Z,7.40
2023-09-28T11:36:58.905Z,6.70
2023-09-28T11:37:58.892Z,7.00
2023-09-28T11:38:58.853Z,8.30
2023-09-28T11:39:58.845Z,6.20
2023-09-28T11:40:58.848Z,6.90
2023-09-28T11:41:58.978Z,6.60
2023-09-28T11:42:58.825Z,8.00
2023-09-28T11:43:59.091Z,6.40
2023-09-28T11:44:58.790Z,7.60
2023-09-28T11:45:58.814Z,8.30
2023-09-28T11:46:58.797Z,7.70
2023-09-28T11:47:58.926Z,5.90
2023-09-28T11:48:58.746Z,6.50
2023-09-28T11:49:58.771Z,7.20
2023-09-28T11:50:58.721Z,5.00
2023-09-28T11:51:58.716Z,7.50
2023-09-28T11:52:58.742Z,5.50
2023-09-28T11:53:58.713Z,8.00
2023-09-28T11:54:58.687Z,6.70
2023-09-28T11:55:58.683Z,7.30
2023-09-28T11:56:58.782Z,5.60
2023-09-28T11:57:58.656Z,8.00
2023-09-28T11:58:58.676Z,5.50
2023-09-28T11:59:58.638Z,7.90
2023-09-28T12:00:58.615Z,5.90
2023-09-28T12:01:58.694Z,9.70
2023-09-28T12:02:58.678Z,6.70
2023-09-28T12:03:59.087Z,7.20
2023-09-28T12:04:58.595Z,6.80
2023-09-28T12:05:58.565Z,7.40
2023-09-28T12:06:58.559Z,8.30
2023-09-28T12:07:58.578Z,5.00
2023-09-28T12:08:58.531Z,6.60
2023-09-28T12:10:04.800Z,9.00
2023-09-28T12:10:58.704Z,5.60
2023-09-28T12:11:58.496Z,7.00
2023-09-28T12:12:58.496Z,6.00
2023-09-28T12:13:58.533Z,6.10
2023-09-28T12:14:58.472Z,6.90
2023-09-28T12:15:58.469Z,8.30
2023-09-28T12:16:58.523Z,8.50
2023-09-28T12:17:58.490Z,7.50
2023-09-28T12:18:58.513Z,7.10
2023-09-28T12:19:58.449Z,6.10
2023-09-28T12:20:58.394Z,7.40
2023-09-28T12:21:58.401Z,5.30
2023-09-28T12:22:58.431Z,5.80
2023-09-28T12:23:58.370Z,9.90
2023-09-28T12:24:58.366Z,9.10
2023-09-28T12:25:58.361Z,7.20
2023-09-28T12:26:58.348Z,8.10
2023-09-28T12:27:58.322Z,7.80
2023-09-28T12:28:58.383Z,4.70
2023-09-28T12:29:58.305Z,7.00
2023-09-28T12:30:58.292Z,6.60
2023-09-28T12:31:58.387Z,8.40
2023-09-28T12:32:58.337Z,6.10
2023-09-28T12:33:59.000Z,8.10
2023-09-28T12:34:58.271Z,6.40
2023-09-28T12:35:58.235Z,6.10
2023-09-28T12:36:58.227Z,6.70
2023-09-28T12:37:58.239Z,7.20
2023-09-28T12:38:58.188Z,7.10
2023-09-28T12:39:58.184Z,6.80
2023-09-28T12:40:58.172Z,7.50
2023-09-28T12:41:58.159Z,6.80
2023-09-28T12:42:58.155Z,7.50
2023-09-28T12:43:58.165Z,9.20
2023-09-28T12:44:58.137Z,6.90
2023-09-28T12:45:58.130Z,4.70
2023-09-28T12:46:58.106Z,7.20
2023-09-28T12:47:58.163Z,6.40
2023-09-28T12:48:58.106Z,7.50
2023-09-28T12:49:58.079Z,5.80
2023-09-28T12:50:58.069Z,5.60
2023-09-28T12:51:58.057Z,5.70
2023-09-28T12:52:58.050Z,7.60
2023-09-28T12:53:58.064Z,5.90
2023-09-28T12:54:58.030Z,7.00
2023-09-28T12:55:58.119Z,7.30
2023-09-28T12:56:58.028Z,5.90
2023-09-28T12:57:58.010Z,7.00
2023-09-28T12:58:58.025Z,8.00
2023-09-28T12:59:57.998Z,7.20
2023-09-28T13:00:57.991Z,5.60
2023-09-28T13:01:57.962Z,7.90
2023-09-28T13:02:58.097Z,6.80
2023-09-28T13:03:58.296Z,8.90
2023-09-28T13:04:58.041Z,7.00
2023-09-28T13:05:58.032Z,7.00
2023-09-28T13:06:57.923Z,6.20
2023-09-28T13:07:57.898Z,6.50
2023-09-28T13:08:57.899Z,6.00
2023-09-28T13:09:57.868Z,6.60
2023-09-28T13:10:57.899Z,6.10
2023-09-28T13:11:57.868Z,6.10
2023-09-28T13:12:57.886Z,6.60
2023-09-28T13:13:58.012Z,7.60